createdAt,value
2022-07-27T00:00:51.011Z,18.4
2022-07-27T00:02:51.982Z,18.4
2022-07-27T00:04:50.633Z,18.3
2022-07-27T00:06:50.082Z,18.3
2022-07-27T00:08:50.003Z,18.2
2022-07-27T00:10:50.875Z,18.2
2022-07-27T00:12:50.167Z,18.2
2022-07-27T00:14:50.191Z,18.1
2022-07-27T00:16:50.895Z,18.1
2022-07-27T00:18:50.885Z,18.0
2022-07-27T00:20:50.687Z,18.0
2022-07-27T00:22:50.672Z,18.0
2022-07-27T00:24:50.049Z,17.9
2022-07-27T00:26:50.239Z,17.9
2022-07-27T00:28:50.203Z,17.8
2022-07-27T00:30:50.286Z,17.8
2022-07-27T00:32:50.374Z,17.8
2022-07-27T00:34:50.920Z,17.8
2022-07-27T00:36:50.187Z,17.8
2022-07-27T00:38:50.232Z,17.7
2022-07-27T00:40:50.164Z,17.7
2022-07-27T00:42:50.045Z,17.6
2022-07-27T00:44:49.969Z,17.6
2022-07-27T00:46:50.737Z,17.6
2022-07-27T00:48:50.305Z,17.6
2022-07-27T00:50:50.266Z,17.5
2022-07-27T00:52:50.304Z,17.5
2022-07-27T00:54:50.539Z,17.5
2022-07-27T00:56:50.862Z,17.5
2022-07-27T00:58:50.895Z,17.4
2022-07-27T01:00:50.903Z,17.4
2022-07-27T01:02:51.781Z,17.4
2022-07-27T01:04:57.413Z,17.4
2022-07-27T01:06:50.573Z,17.4
2022-07-27T01:08:50.702Z,17.4
2022-07-27T01:10:51.021Z,17.3
2022-07-27T01:12:50.027Z,17.3
2022-07-27T01:14:49.999Z,17.3
2022-07-27T01:16:50.295Z,17.2
2022-07-27T01:18:50.299Z,17.2
2022-07-27T01:20:50.339Z,17.2
2022-07-27T01:22:50.240Z,17.2
2022-07-27T01:24:50.280Z,17.1
2022-07-27T01:26:50.440Z,17.1
2022-07-27T01:28:50.510Z,17.1
2022-07-27T01:30:51.219Z,17.0
2022-07-27T01:32:50.386Z,17.0
2022-07-27T01:34:50.581Z,17.0
2022-07-27T01:36:49.921Z,17.0
2022-07-27T01:38:50.799Z,17.0
2022-07-27T01:40:50.722Z,16.9
2022-07-27T01:42:50.801Z,16.9
2022-07-27T01:44:50.710Z,16.9
2022-07-27T01:46:51.305Z,16.8
2022-07-27T01:48:50.924Z,16.8
2022-07-27T01:50:50.126Z,16.8
2022-07-27T01:52:50.614Z,16.8
2022-07-27T01:54:50.656Z,16.8
2022-07-27T01:56:49.975Z,16.8
2022-07-27T01:58:49.975Z,16.7
2022-07-27T02:00:50.082Z,16.7
2022-07-27T02:02:50.057Z,16.7
2022-07-27T02:04:50.743Z,16.7
2022-07-27T02:06:50.062Z,16.7
2022-07-27T02:08:50.611Z,16.6
2022-07-27T02:10:50.587Z,16.6
2022-07-27T02:12:50.658Z,16.6
2022-07-27T02:14:50.229Z,16.6
2022-07-27T02:16:51.711Z,16.6
2022-07-27T02:18:50.746Z,16.6
2022-07-27T02:20:51.355Z,16.6
2022-07-27T02:22:50.314Z,16.6
2022-07-27T02:24:50.271Z,16.5
2022-07-27T02:26:50.632Z,16.5
2022-07-27T02:28:50.650Z,16.5
2022-07-27T02:30:50.793Z,16.5
2022-07-27T02:32:51.107Z,16.5
2022-07-27T02:34:50.602Z,16.5
2022-07-27T02:36:50.509Z,16.4
2022-07-27T02:38:50.445Z,16.4
2022-07-27T02:40:50.423Z,16.5
2022-07-27T02:42:50.494Z,16.5
2022-07-27T02:44:50.398Z,16.5
2022-07-27T02:46:50.567Z,16.5
2022-07-27T02:48:50.853Z,16.4
2022-07-27T02:50:50.107Z,16.4
2022-07-27T02:52:50.110Z,16.4
2022-07-27T02:54:50.090Z,16.4
2022-07-27T02:56:50.361Z,16.4
2022-07-27T02:58:50.413Z,16.4
2022-07-27T03:01:03.131Z,16.3
2022-07-27T03:02:50.447Z,16.3
2022-07-27T03:04:50.443Z,16.3
2022-07-27T03:06:50.843Z,16.2
2022-07-27T03:08:50.773Z,16.2
2022-07-27T03:10:50.685Z,16.2
2022-07-27T03:12:50.608Z,16.2
2022-07-27T03:14:50.772Z,16.2
2022-07-27T03:16:50.009Z,16.2
2022-07-27T03:18:50.372Z,16.1
2022-07-27T03:20:50.935Z,16.1
2022-07-27T03:22:50.158Z,16.0
2022-07-27T03:24:50.174Z,16.0
2022-07-27T03:26:50.403Z,16.0
2022-07-27T03:28:50.314Z,15.9
2022-07-27T03:30:50.491Z,15.9
2022-07-27T03:32:50.486Z,15.8
2022-07-27T03:34:50.841Z,15.8
2022-07-27T03:36:50.089Z,15.8
2022-07-27T03:38:50.020Z,15.8
2022-07-27T03:40:49.979Z,15.8
2022-07-27T03:42:50.020Z,15.8
2022-07-27T03:44:50.114Z,15.8
2022-07-27T03:46:50.218Z,15.8
2022-07-27T03:48:50.564Z,15.7
2022-07-27T03:50:50.515Z,15.7
2022-07-27T03:52:50.811Z,15.7
2022-07-27T03:54:50.821Z,15.7
2022-07-27T03:56:50.266Z,15.7
2022-07-27T03:58:50.169Z,15.7
2022-07-27T04:00:50.488Z,15.7
2022-07-27T04:02:51.022Z,15.7
2022-07-27T04:04:50.719Z,15.6
2022-07-27T04:06:50.070Z,15.6
2022-07-27T04:09:07.015Z,15.6
2022-07-27T04:10:50.591Z,15.6
2022-07-27T04:12:50.529Z,15.6
2022-07-27T04:14:50.559Z,15.6
2022-07-27T04:16:51.159Z,15.6
2022-07-27T04:18:50.397Z,15.7
2022-07-27T04:20:50.111Z,15.7
2022-07-27T04:22:50.921Z,15.7
2022-07-27T04:24:50.851Z,15.8
2022-07-27T04:26:50.252Z,15.8
2022-07-27T04:28:50.415Z,15.9
2022-07-27T04:30:50.600Z,16.0
2022-07-27T04:32:50.852Z,16.0
2022-07-27T04:34:50.114Z,16.0
2022-07-27T04:36:50.320Z,16.1
2022-07-27T04:38:50.327Z,16.1
2022-07-27T04:40:58.667Z,16.2
2022-07-27T04:42:50.445Z,16.2
2022-07-27T04:44:50.381Z,16.3
2022-07-27T04:46:50.602Z,16.3
2022-07-27T04:48:50.971Z,16.4
2022-07-27T04:50:50.155Z,16.4
2022-07-27T04:52:50.244Z,16.4
2022-07-27T04:54:50.390Z,16.4
2022-07-27T04:56:50.561Z,16.6
2022-07-27T04:58:50.658Z,16.6
2022-07-27T05:00:50.741Z,16.6
2022-07-27T05:02:50.160Z,16.6
2022-07-27T05:04:50.633Z,16.7
2022-07-27T05:06:49.993Z,17.0
2022-07-27T05:08:50.913Z,17.2
2022-07-27T05:10:50.353Z,17.7
2022-07-27T05:12:50.380Z,17.7
2022-07-27T05:14:50.404Z,18.1
2022-07-27T05:16:51.368Z,18.4
2022-07-27T05:18:50.483Z,18.4
2022-07-27T05:20:51.075Z,19.0
2022-07-27T05:22:50.064Z,19.3
2022-07-27T05:24:50.915Z,19.6
2022-07-27T05:26:50.030Z,20.2
2022-07-27T05:28:50.075Z,20.2
2022-07-27T05:30:50.055Z,20.6
2022-07-27T05:32:50.033Z,20.8
2022-07-27T05:34:50.396Z,21.1
2022-07-27T05:36:50.609Z,21.5
2022-07-27T05:38:50.459Z,21.5
2022-07-27T05:40:50.462Z,22.0
2022-07-27T05:42:50.426Z,22.3
2022-07-27T05:44:50.731Z,22.4
2022-07-27T05:46:49.913Z,22.5
2022-07-27T05:48:50.458Z,22.5
2022-07-27T05:50:50.470Z,22.6
2022-07-27T05:52:50.542Z,22.6
2022-07-27T05:54:50.921Z,22.5
2022-07-27T05:56:50.163Z,22.4
2022-07-27T05:58:50.077Z,22.4
2022-07-27T06:00:50.317Z,22.2
2022-07-27T06:02:50.418Z,22.1
2022-07-27T06:04:50.885Z,21.9
2022-07-27T06:06:50.068Z,21.8
2022-07-27T06:08:49.984Z,21.8
2022-07-27T06:10:50.134Z,21.6
2022-07-27T06:12:50.264Z,21.4
2022-07-27T06:14:51.838Z,21.4
2022-07-27T06:16:50.690Z,21.3
2022-07-27T06:18:50.868Z,21.2
2022-07-27T06:20:50.697Z,21.2
2022-07-27T06:22:50.900Z,21.2
2022-07-27T06:24:50.791Z,21.2
2022-07-27T06:26:50.097Z,21.2
2022-07-27T06:28:50.944Z,21.1
2022-07-27T06:30:50.205Z,21.0
2022-07-27T06:32:50.261Z,21.0
2022-07-27T06:34:50.856Z,21.0
2022-07-27T06:36:50.141Z,20.9
2022-07-27T06:38:50.549Z,21.0
2022-07-27T06:40:50.620Z,21.0
2022-07-27T06:42:50.512Z,21.0
2022-07-27T06:44:50.415Z,21.0
2022-07-27T06:46:50.979Z,20.9
2022-07-27T06:48:50.474Z,20.8
2022-07-27T06:50:50.384Z,20.8
2022-07-27T06:52:50.583Z,20.8
2022-07-27T06:54:50.372Z,20.8
2022-07-27T06:56:50.523Z,20.7
2022-07-27T06:58:50.440Z,20.7
2022-07-27T07:00:51.292Z,20.7
2022-07-27T07:02:50.574Z,20.7
2022-07-27T07:04:49.929Z,20.6
2022-07-27T07:06:50.104Z,20.6
2022-07-27T07:08:50.300Z,20.6
2022-07-27T07:10:50.207Z,20.5
2022-07-27T07:12:50.098Z,20.5
2022-07-27T07:14:50.925Z,20.5
2022-07-27T07:16:50.813Z,20.4
2022-07-27T07:18:53.094Z,20.4
2022-07-27T07:20:50.193Z,20.4
2022-07-27T07:22:50.411Z,20.4
2022-07-27T07:24:50.441Z,20.4
2022-07-27T07:26:50.909Z,20.6
2022-07-27T07:28:50.890Z,20.6
2022-07-27T07:30:50.654Z,20.6
2022-07-27T07:32:50.761Z,20.6
2022-07-27T07:34:50.212Z,20.7
2022-07-27T07:36:50.413Z,20.7
2022-07-27T07:38:50.281Z,20.7
2022-07-27T07:40:50.342Z,20.8
2022-07-27T07:42:50.393Z,20.8
2022-07-27T07:44:50.585Z,20.8
2022-07-27T07:46:50.264Z,20.8
2022-07-27T07:48:50.561Z,20.8
2022-07-27T07:50:54.395Z,20.8
2022-07-27T07:52:50.544Z,20.9
2022-07-27T07:54:50.546Z,20.9
2022-07-27T07:56:50.878Z,21.0
2022-07-27T07:58:49.953Z,21.0
2022-07-27T08:00:50.074Z,21.0
2022-07-27T08:02:50.492Z,21.0
2022-07-27T08:04:50.165Z,21.0
2022-07-27T08:06:50.005Z,21.0
2022-07-27T08:08:50.923Z,21.1
2022-07-27T08:10:50.210Z,21.1
2022-07-27T08:12:50.074Z,21.1
2022-07-27T08:14:50.104Z,21.1
2022-07-27T08:16:50.416Z,21.2
2022-07-27T08:18:50.433Z,21.2
2022-07-27T08:20:50.454Z,21.3
2022-07-27T08:22:50.405Z,21.4
2022-07-27T08:24:50.300Z,21.5
2022-07-27T08:26:50.823Z,21.6
2022-07-27T08:28:51.111Z,21.6
2022-07-27T08:30:50.072Z,21.7
2022-07-27T08:32:50.075Z,21.8
2022-07-27T08:34:50.385Z,21.8
2022-07-27T08:36:50.859Z,21.9
2022-07-27T08:38:50.791Z,21.9
2022-07-27T08:40:50.904Z,22.1
2022-07-27T08:42:52.215Z,22.2
2022-07-27T08:44:50.315Z,22.2
2022-07-27T08:46:51.146Z,22.2
2022-07-27T08:48:51.085Z,22.2
2022-07-27T08:50:50.220Z,22.2
2022-07-27T08:52:50.293Z,22.2
2022-07-27T08:54:50.532Z,22.2
2022-07-27T08:56:50.825Z,22.3
2022-07-27T08:58:50.882Z,22.3
2022-07-27T09:00:50.610Z,22.4
2022-07-27T09:02:50.993Z,22.4
2022-07-27T09:04:50.410Z,22.5
2022-07-27T09:06:54.813Z,22.6
2022-07-27T09:08:53.832Z,22.6
2022-07-27T09:10:50.929Z,22.6
2022-07-27T09:12:50.803Z,22.8
2022-07-27T09:14:53.745Z,22.8
2022-07-27T09:17:46.335Z,22.8
2022-07-27T09:18:50.729Z,22.9
2022-07-27T09:20:50.952Z,22.9
2022-07-27T09:22:50.015Z,22.9
2022-07-27T09:24:50.853Z,22.9
2022-07-27T09:26:50.083Z,22.8
2022-07-27T09:28:50.657Z,22.8
2022-07-27T09:30:50.864Z,22.8
2022-07-27T09:32:53.369Z,22.8
2022-07-27T09:34:49.940Z,22.8
2022-07-27T09:36:50.303Z,22.9
2022-07-27T09:39:12.037Z,23.0
2022-07-27T09:40:50.557Z,23.1
2022-07-27T09:43:52.673Z,23.2
2022-07-27T09:44:57.320Z,23.2
2022-07-27T09:46:50.445Z,23.2
2022-07-27T09:48:50.967Z,23.2
2022-07-27T09:51:56.167Z,23.2
2022-07-27T09:52:49.941Z,23.2
2022-07-27T09:54:50.908Z,23.2
2022-07-27T09:56:50.429Z,23.3
2022-07-27T09:58:50.325Z,23.4
2022-07-27T10:00:50.518Z,23.4
2022-07-27T10:02:50.684Z,23.4
2022-07-27T10:14:50.677Z,23.4
2022-07-27T10:16:50.021Z,23.4
2022-07-27T10:18:56.362Z,23.3
2022-07-27T10:20:50.372Z,23.3
2022-07-27T10:22:50.621Z,23.3
2022-07-27T10:24:53.669Z,23.3
2022-07-27T10:26:50.261Z,23.4
2022-07-27T10:28:50.335Z,23.4
2022-07-27T10:30:55.274Z,23.4
2022-07-27T10:32:50.565Z,23.4
2022-07-27T10:34:50.123Z,23.4
2022-07-27T10:36:50.483Z,23.5
2022-07-27T10:38:50.724Z,23.5
2022-07-27T10:40:50.683Z,23.4
2022-07-27T10:42:55.195Z,23.4
2022-07-27T10:44:50.331Z,23.4
2022-07-27T10:46:51.174Z,23.4
2022-07-27T10:48:50.834Z,23.4
2022-07-27T10:50:50.151Z,23.4
2022-07-27T10:52:50.261Z,23.5
2022-07-27T10:55:00.526Z,23.5
2022-07-27T10:56:50.891Z,23.6
2022-07-27T10:58:50.934Z,23.6
2022-07-27T11:00:56.043Z,23.6
2022-07-27T11:02:50.257Z,23.6
2022-07-27T11:04:50.371Z,23.7
2022-07-27T11:07:24.947Z,23.7
2022-07-27T11:10:00.538Z,23.8
2022-07-27T11:10:50.178Z,23.8
2022-07-27T11:12:50.219Z,23.8
2022-07-27T11:14:50.463Z,23.8
2022-07-27T11:17:48.485Z,23.9
2022-07-27T11:18:54.285Z,23.9
2022-07-27T11:20:50.604Z,24.0
2022-07-27T11:23:50.299Z,24.1
2022-07-27T11:24:50.751Z,24.2
2022-07-27T11:26:50.307Z,24.2
2022-07-27T11:28:50.605Z,24.2
2022-07-27T11:30:51.164Z,24.2
2022-07-27T11:32:50.934Z,24.2
2022-07-27T11:34:50.478Z,24.1
2022-07-27T11:36:50.070Z,24.1
2022-07-27T11:38:50.081Z,24.1
2022-07-27T11:41:39.821Z,24.2
2022-07-27T11:42:51.368Z,24.2
2022-07-27T11:44:51.570Z,24.3
2022-07-27T11:46:50.093Z,24.3
2022-07-27T11:49:09.597Z,24.4
2022-07-27T11:50:50.464Z,24.5
2022-07-27T11:52:50.460Z,24.5
2022-07-27T11:54:50.517Z,24.5
2022-07-27T11:56:50.820Z,24.5
2022-07-27T11:58:50.006Z,24.6
2022-07-27T12:00:50.819Z,24.6
2022-07-27T12:02:51.169Z,24.7
2022-07-27T12:04:50.606Z,24.8
2022-07-27T12:06:50.087Z,24.8
2022-07-27T12:08:50.017Z,24.8
2022-07-27T12:10:50.241Z,24.8
2022-07-27T12:12:50.189Z,25.0
2022-07-27T12:14:50.196Z,25.0
2022-07-27T12:16:50.337Z,25.1
2022-07-27T12:18:50.325Z,25.1
2022-07-27T12:20:50.371Z,25.1
2022-07-27T12:22:50.494Z,25.1
2022-07-27T12:24:50.600Z,25.2
2022-07-27T12:26:50.697Z,25.2
2022-07-27T12:28:50.833Z,25.2
2022-07-27T12:30:51.135Z,25.4
2022-07-27T12:32:56.096Z,25.5
2022-07-27T12:34:50.091Z,25.4
2022-07-27T12:36:50.562Z,25.4
2022-07-27T12:38:50.632Z,25.3
2022-07-27T12:40:50.939Z,25.3
2022-07-27T12:42:50.050Z,25.3
2022-07-27T12:44:50.225Z,25.3
2022-07-27T12:46:50.657Z,25.3
2022-07-27T12:48:50.781Z,25.4
2022-07-27T12:50:50.067Z,25.4
2022-07-27T12:52:50.152Z,25.4
2022-07-27T12:54:50.137Z,25.4
2022-07-27T12:56:50.627Z,25.4
2022-07-27T12:58:50.774Z,25.3
2022-07-27T13:00:50.441Z,25.3
2022-07-27T13:02:50.967Z,25.3
2022-07-27T13:04:50.649Z,25.2
2022-07-27T13:06:50.135Z,25.2
2022-07-27T13:08:50.108Z,25.1
2022-07-27T13:10:50.279Z,25.1
2022-07-27T13:12:50.497Z,25.3
2022-07-27T13:14:50.383Z,25.3
2022-07-27T13:16:51.252Z,25.4
2022-07-27T13:18:50.693Z,25.4
2022-07-27T13:20:50.648Z,25.5
2022-07-27T13:22:50.785Z,25.6
2022-07-27T13:24:50.621Z,25.6
2022-07-27T13:26:50.928Z,25.5
2022-07-27T13:28:51.819Z,25.6
2022-07-27T13:30:50.753Z,25.6
2022-07-27T13:32:50.756Z,25.6
2022-07-27T13:34:50.194Z,25.6
2022-07-27T13:36:50.587Z,25.5
2022-07-27T13:38:50.584Z,25.6
2022-07-27T13:40:50.506Z,25.6
2022-07-27T13:42:50.583Z,25.6
2022-07-27T13:45:11.989Z,25.6
2022-07-27T13:46:53.415Z,25.7
2022-07-27T13:48:50.798Z,25.6
2022-07-27T13:50:50.041Z,25.6
2022-07-27T13:52:50.064Z,25.6
2022-07-27T13:54:50.814Z,25.6
2022-07-27T13:56:50.168Z,25.6
2022-07-27T13:58:50.162Z,25.4
2022-07-27T14:00:50.492Z,25.4
2022-07-27T14:02:50.857Z,25.3
2022-07-27T14:04:50.664Z,25.2
2022-07-27T14:06:50.418Z,25.2
2022-07-27T14:08:50.392Z,25.2
2022-07-27T14:10:51.764Z,25.2
2022-07-27T14:12:59.246Z,25.4
2022-07-27T14:14:50.395Z,25.6
2022-07-27T14:16:51.139Z,25.6
2022-07-27T14:18:50.294Z,25.6
2022-07-27T14:20:50.290Z,25.8
2022-07-27T14:22:50.340Z,25.8
2022-07-27T14:24:50.206Z,25.8
2022-07-27T14:26:50.506Z,25.8
2022-07-27T14:28:50.618Z,25.8
2022-07-27T14:30:50.915Z,25.8
2022-07-27T14:32:50.024Z,25.9
2022-07-27T14:34:50.615Z,25.8
2022-07-27T14:36:50.838Z,25.8
2022-07-27T14:38:50.904Z,25.8
2022-07-27T14:40:50.339Z,25.8
2022-07-27T14:42:50.455Z,25.6
2022-07-27T14:44:50.503Z,25.4
2022-07-27T14:46:50.324Z,25.4
2022-07-27T14:49:07.393Z,25.5
2022-07-27T14:50:50.656Z,25.5
2022-07-27T14:52:50.720Z,25.6
2022-07-27T14:54:50.054Z,25.6
2022-07-27T14:56:50.647Z,25.6
2022-07-27T14:58:50.046Z,25.6
2022-07-27T15:00:50.398Z,25.4
2022-07-27T15:02:50.817Z,25.4
2022-07-27T15:04:50.478Z,25.2
2022-07-27T15:06:50.768Z,25.2
2022-07-27T15:08:49.958Z,25.1
2022-07-27T15:10:49.978Z,25.2
2022-07-27T15:12:50.064Z,25.3
2022-07-27T15:14:50.158Z,25.3
2022-07-27T15:16:50.437Z,25.4
2022-07-27T15:18:50.776Z,25.4
2022-07-27T15:20:50.036Z,25.4
2022-07-27T15:22:50.118Z,25.4
2022-07-27T15:24:50.359Z,25.4
2022-07-27T15:26:50.928Z,25.3
2022-07-27T15:28:50.112Z,25.3
2022-07-27T15:30:50.455Z,25.2
2022-07-27T15:32:50.673Z,25.4
2022-07-27T15:34:50.499Z,25.4
2022-07-27T15:36:52.750Z,25.5
2022-07-27T15:38:49.955Z,25.6
2022-07-27T15:40:50.186Z,25.7
2022-07-27T15:42:50.358Z,25.7
2022-07-27T15:44:50.437Z,25.8
2022-07-27T15:46:50.286Z,25.8
2022-07-27T15:48:50.789Z,25.8
2022-07-27T15:50:50.016Z,25.9
2022-07-27T15:52:50.033Z,25.9
2022-07-27T15:54:49.950Z,26.0
2022-07-27T15:56:50.371Z,25.9
2022-07-27T15:58:50.635Z,25.8
2022-07-27T16:00:51.102Z,25.8
2022-07-27T16:02:50.923Z,25.8
2022-07-27T16:04:50.527Z,25.8
2022-07-27T16:06:50.097Z,25.8
2022-07-27T16:08:50.403Z,25.9
2022-07-27T16:10:50.502Z,26.0
2022-07-27T16:12:50.654Z,26.0
2022-07-27T16:14:50.764Z,26.0
2022-07-27T16:16:50.488Z,26.0
2022-07-27T16:18:50.653Z,26.1
2022-07-27T16:20:50.688Z,26.1
2022-07-27T16:22:49.984Z,26.1
2022-07-27T16:24:50.229Z,26.1
2022-07-27T16:26:50.008Z,26.2
2022-07-27T16:28:50.444Z,26.2
2022-07-27T16:30:50.969Z,26.2
2022-07-27T16:32:50.046Z,26.3
2022-07-27T16:34:50.589Z,26.3
2022-07-27T16:36:50.148Z,26.3
2022-07-27T16:38:51.046Z,26.4
2022-07-27T16:40:50.145Z,26.4
2022-07-27T16:42:50.399Z,26.4
2022-07-27T16:44:50.432Z,26.5
2022-07-27T16:46:51.172Z,26.5
2022-07-27T16:48:50.735Z,26.6
2022-07-27T16:50:50.889Z,26.6
2022-07-27T16:52:50.281Z,26.7
2022-07-27T16:54:50.345Z,26.7
2022-07-27T16:56:50.906Z,26.8
2022-07-27T16:58:50.112Z,26.8
2022-07-27T17:00:50.129Z,26.8
2022-07-27T17:02:50.261Z,26.8
2022-07-27T17:04:50.243Z,26.8
2022-07-27T17:06:50.781Z,26.8
2022-07-27T17:08:50.670Z,26.9
2022-07-27T17:10:51.656Z,26.9
2022-07-27T17:12:51.744Z,27.0
2022-07-27T17:14:50.681Z,27.2
2022-07-27T17:16:52.794Z,27.3
2022-07-27T17:18:50.806Z,27.3
2022-07-27T17:20:50.827Z,27.3
2022-07-27T17:22:52.611Z,27.4
2022-07-27T17:24:50.050Z,27.5
2022-07-27T17:26:50.383Z,27.5
2022-07-27T17:28:50.593Z,27.6
2022-07-27T17:30:50.811Z,27.6
2022-07-27T17:32:50.762Z,27.7
2022-07-27T17:34:50.244Z,27.7
2022-07-27T17:36:50.694Z,27.7
2022-07-27T17:38:50.681Z,27.8
2022-07-27T17:40:50.752Z,27.8
2022-07-27T17:42:50.978Z,27.8
2022-07-27T17:44:49.940Z,27.8
2022-07-27T17:46:50.719Z,27.6
2022-07-27T17:48:51.006Z,27.4
2022-07-27T17:50:50.339Z,27.4
2022-07-27T17:52:50.261Z,27.3
2022-07-27T17:54:50.270Z,27.3
2022-07-27T17:56:50.494Z,27.3
2022-07-27T17:58:49.920Z,27.2
2022-07-27T18:00:50.769Z,27.1
2022-07-27T18:02:50.669Z,27.0
2022-07-27T18:04:50.289Z,26.8
2022-07-27T18:06:50.593Z,26.8
2022-07-27T18:08:50.429Z,26.5
2022-07-27T18:10:50.263Z,26.1
2022-07-27T18:12:50.158Z,25.9
2022-07-27T18:14:51.560Z,25.9
2022-07-27T18:16:49.934Z,25.6
2022-07-27T18:18:50.869Z,25.4
2022-07-27T18:20:50.849Z,25.2
2022-07-27T18:22:50.691Z,25.0
2022-07-27T18:24:50.504Z,24.8
2022-07-27T18:26:51.699Z,24.6
2022-07-27T18:28:50.622Z,24.6
2022-07-27T18:30:50.861Z,24.4
2022-07-27T18:32:50.722Z,24.2
2022-07-27T18:34:50.425Z,24.2
2022-07-27T18:36:50.789Z,24.0
2022-07-27T18:38:50.045Z,23.9
2022-07-27T18:40:50.053Z,23.7
2022-07-27T18:42:49.958Z,23.7
2022-07-27T18:44:50.830Z,23.5
2022-07-27T18:46:50.072Z,23.4
2022-07-27T18:48:51.175Z,23.2
2022-07-27T18:50:50.085Z,23.0
2022-07-27T18:52:50.848Z,23.0
2022-07-27T18:54:50.783Z,22.9
2022-07-27T18:56:50.201Z,22.8
2022-07-27T18:58:49.947Z,22.6
2022-07-27T19:00:55.055Z,22.5
2022-07-27T19:02:58.716Z,22.5
2022-07-27T19:04:50.547Z,22.4
2022-07-27T19:06:50.763Z,22.2
2022-07-27T19:08:50.402Z,22.2
2022-07-27T19:10:50.217Z,22.0
2022-07-27T19:12:50.147Z,22.0
2022-07-27T19:14:51.487Z,21.9
2022-07-27T19:16:51.142Z,21.8
2022-07-27T19:18:50.442Z,21.7
2022-07-27T19:20:50.223Z,21.6
2022-07-27T19:22:50.441Z,21.6
2022-07-27T19:24:55.499Z,21.6
2022-07-27T19:26:50.640Z,21.4
2022-07-27T19:28:50.683Z,21.4
2022-07-27T19:30:52.555Z,21.4
2022-07-27T19:32:50.806Z,21.3
2022-07-27T19:34:50.214Z,21.2
2022-07-27T19:36:50.624Z,21.2
2022-07-27T19:38:50.565Z,21.0
2022-07-27T19:40:50.777Z,21.0
2022-07-27T19:42:50.736Z,21.0
2022-07-27T19:44:50.565Z,20.9
2022-07-27T19:46:50.825Z,20.8
2022-07-27T19:48:51.022Z,20.7
2022-07-27T19:50:50.228Z,20.7
2022-07-27T19:52:50.082Z,20.7
2022-07-27T19:54:50.099Z,20.6
2022-07-27T19:56:50.275Z,20.5
2022-07-27T19:58:50.328Z,20.5
2022-07-27T20:00:50.068Z,20.4
2022-07-27T20:02:50.646Z,20.4
2022-07-27T20:04:50.063Z,20.3
2022-07-27T20:06:50.543Z,20.3
2022-07-27T20:08:50.444Z,20.2
2022-07-27T20:10:50.231Z,20.2
2022-07-27T20:12:50.219Z,20.1
2022-07-27T20:14:50.158Z,20.0
2022-07-27T20:16:50.654Z,20.0
2022-07-27T20:18:51.037Z,20.0
2022-07-27T20:20:50.198Z,19.9
2022-07-27T20:22:50.067Z,19.8
2022-07-27T20:24:50.387Z,19.8
2022-07-27T20:26:50.542Z,19.8
2022-07-27T20:28:50.798Z,19.7
2022-07-27T20:30:51.061Z,19.7
2022-07-27T20:32:50.449Z,19.6
2022-07-27T20:34:50.905Z,19.6
2022-07-27T20:36:49.936Z,19.6
2022-07-27T20:38:50.868Z,19.5
2022-07-27T20:40:50.908Z,19.4
2022-07-27T20:42:50.843Z,19.4
2022-07-27T20:44:50.882Z,19.4
2022-07-27T20:46:50.108Z,19.3
2022-07-27T20:48:50.509Z,19.2
2022-07-27T20:50:52.110Z,19.2
2022-07-27T20:52:50.182Z,19.1
2022-07-27T20:54:50.157Z,19.0
2022-07-27T20:56:50.557Z,19.0
2022-07-27T20:58:50.400Z,19.0
2022-07-27T21:00:50.838Z,18.9
2022-07-27T21:02:51.485Z,18.8
2022-07-27T21:04:50.024Z,18.8
2022-07-27T21:06:50.318Z,18.8
2022-07-27T21:08:50.403Z,18.7
2022-07-27T21:10:50.939Z,18.6
2022-07-27T21:12:49.929Z,18.6
2022-07-27T21:14:50.853Z,18.6
2022-07-27T21:16:50.676Z,18.5
2022-07-27T21:18:50.590Z,18.4
2022-07-27T21:20:50.494Z,18.3
2022-07-27T21:22:50.599Z,18.3
2022-07-27T21:24:50.415Z,18.2
2022-07-27T21:26:50.599Z,18.2
2022-07-27T21:28:50.863Z,18.2
2022-07-27T21:30:49.966Z,18.1
2022-07-27T21:32:51.131Z,18.1
2022-07-27T21:34:50.854Z,18.1
2022-07-27T21:36:50.002Z,18.0
2022-07-27T21:38:50.911Z,18.0
2022-07-27T21:40:50.079Z,17.9
2022-07-27T21:42:50.075Z,17.9
2022-07-27T21:44:50.048Z,17.8
2022-07-27T21:46:50.209Z,17.8
2022-07-27T21:48:50.389Z,17.8
2022-07-27T21:50:50.368Z,17.7
2022-07-27T21:52:50.534Z,17.7
2022-07-27T21:54:50.487Z,17.7
2022-07-27T21:56:51.151Z,17.6
2022-07-27T21:58:50.086Z,17.5
2022-07-27T22:00:50.581Z,17.5
2022-07-27T22:02:50.576Z,17.5
2022-07-27T22:04:50.970Z,17.4
2022-07-27T22:06:50.104Z,17.4
2022-07-27T22:14:50.926Z,17.2
2022-07-27T22:16:50.397Z,17.2
2022-07-27T22:18:50.573Z,17.2
2022-07-27T22:20:50.557Z,17.1
2022-07-27T22:22:50.555Z,17.1
2022-07-27T22:24:50.687Z,17.0
2022-07-27T22:26:49.925Z,17.0
2022-07-27T22:28:50.002Z,17.0
2022-07-27T22:31:22.108Z,17.0
2022-07-27T22:32:50.514Z,17.0
2022-07-27T22:34:50.801Z,16.9
2022-07-27T22:36:50.206Z,16.9
2022-07-27T22:38:49.997Z,16.9
2022-07-27T22:40:50.932Z,16.8
2022-07-27T22:42:51.306Z,16.8
2022-07-27T22:44:50.591Z,16.8
2022-07-27T22:46:50.844Z,16.8
2022-07-27T22:48:51.064Z,16.8
2022-07-27T22:50:50.161Z,16.7
2022-07-27T22:52:50.021Z,16.8
2022-07-27T22:54:49.932Z,16.7
2022-07-27T22:56:50.219Z,16.7
2022-07-27T22:58:50.194Z,16.7
2022-07-27T23:00:50.713Z,16.7
2022-07-27T23:02:50.629Z,16.7
2022-07-27T23:04:50.334Z,16.6
2022-07-27T23:06:50.720Z,16.6
2022-07-27T23:08:50.592Z,16.6
2022-07-27T23:10:50.627Z,16.6
2022-07-27T23:12:50.557Z,16.6
2022-07-27T23:14:50.527Z,16.6
2022-07-27T23:16:50.947Z,16.6
2022-07-27T23:18:50.862Z,16.6
2022-07-27T23:20:50.001Z,16.6
2022-07-27T23:22:51.326Z,16.6
2022-07-27T23:24:52.070Z,16.5
2022-07-27T23:26:50.247Z,16.5
2022-07-27T23:28:50.357Z,16.5
2022-07-27T23:30:50.172Z,16.5
2022-07-27T23:32:50.198Z,16.5
2022-07-27T23:34:50.669Z,16.5
2022-07-27T23:36:50.755Z,16.5
2022-07-27T23:38:50.691Z,16.5
2022-07-27T23:40:50.652Z,16.4
2022-07-27T23:42:50.622Z,16.4
2022-07-27T23:44:53.240Z,16.4
2022-07-27T23:46:50.954Z,16.4
2022-07-27T23:48:50.240Z,16.3
2022-07-27T23:50:50.375Z,16.3
2022-07-27T23:52:50.334Z,16.3
2022-07-27T23:54:50.241Z,16.3
2022-07-27T23:56:50.342Z,16.3
2022-07-27T23:58:50.215Z,16.2
